PWSweather.com
Personal Weather Stations
Station Observations
KAZPHOEN90
RayThunderhill, Phoenix, AZ

RayThunderhillPhoenix, AZ

Lat: 33.312, Lon: -112.029

Elevation: 1260

Station Type: Davis Vantage VUE

Latest ConditionsUpdated 11:15:01 AM MST Friday, Jan 30, 2015
Currently Today's Max Today's Min Today's Average
Temperature 57.2°F14.0°C 58.0°F14.4°C 56.1°F13.4°C 57.2°F14.0°C
Dew Point 55.8°F13.2°C 56.4°F13.6°C 54.5°F12.5°C 55.6°F13.1°C
Winds Calm Calm 0.8 mph E1.3 kmh E - 0.1 mph 0.2 kmh
Wind Gusts -- 3.0 mph4.8 kmh - -
Humidity 95% 95% 94% 95%
Pressure 29.84 in1010.5 mb 29.94 in1013.9 mb 29.84 in1010.5 mb -
Precipitation - 0.36 in9.1 mm - -
Hour Temp Dew Point Humidity Winds Wind Gusts Pressure Precip Precip Rate Daily Precip Total
11:15 AM 57.2°F14.0°C 55.8°F13.2°C 95% Calm Calm -- 29.84 in1010.5 mb 0.01 in0.3 mm 0.04 in/hr1.0 mm/hr 0.36 in9.1 mm
11:00 AM 57.2°F14.0°C 55.8°F13.2°C 95% Calm Calm -- 29.85 in1010.8 mb 0.00 in0.0 mm 0.00 in/hr0.0 mm/hr 0.35 in8.9 mm
10:45 AM 57.1°F13.9°C 55.7°F13.2°C 95% Calm Calm -- 29.85 in1010.8 mb 0.00 in0.0 mm 0.00 in/hr0.0 mm/hr 0.35 in8.9 mm
10:30 AM 57.0°F13.9°C 55.6°F13.1°C 95% Calm Calm -- 29.86 in1011.2 mb 0.01 in0.3 mm 0.04 in/hr1.0 mm/hr 0.35 in8.9 mm
10:15 AM 56.8°F13.8°C 55.4°F13.0°C 95% Calm Calm -- 29.85 in1010.8 mb 0.01 in0.3 mm 0.04 in/hr1.0 mm/hr 0.34 in8.6 mm
10:00 AM 56.5°F13.6°C 55.1°F12.8°C 95% Calm Calm -- 29.85 in1010.8 mb 0.00 in0.0 mm 0.00 in/hr0.0 mm/hr 0.33 in8.4 mm
09:45 AM 56.4°F13.6°C 55.0°F12.8°C 95% Calm Calm -- 29.85 in1010.8 mb 0.00 in0.0 mm 0.00 in/hr0.0 mm/hr 0.33 in8.4 mm
09:30 AM 56.3°F13.5°C 54.9°F12.7°C 95% 0.8 mph E1.3 kmh E -- 29.85 in1010.8 mb 0.02 in0.5 mm 0.08 in/hr2.0 mm/hr 0.33 in8.4 mm
09:15 AM 56.1°F13.4°C 54.7°F12.6°C 95% 0.4 mph ESE0.6 kmh ESE 1.0 mph1.6 kmh 29.85 in1010.8 mb 0.03 in0.8 mm 0.12 in/hr3.0 mm/hr 0.32 in8.1 mm
09:00 AM 56.1°F13.4°C 54.7°F12.6°C 95% 0.1 mph SE0.2 kmh SE 2.0 mph3.2 kmh 29.84 in1010.5 mb 0.01 in0.3 mm 0.01 in/hr0.3 mm/hr 0.29 in7.4 mm
08:45 AM 56.2°F13.4°C 54.5°F12.5°C 94% 0.5 mph ESE0.8 kmh ESE 2.0 mph3.2 kmh 29.85 in1010.8 mb 0.00 in0.0 mm 0.00 in/hr0.0 mm/hr 0.28 in7.1 mm
08:30 AM 56.2°F13.4°C 54.5°F12.5°C 94% Calm Calm -- 29.84 in1010.5 mb 0.01 in0.3 mm 0.04 in/hr1.0 mm/hr 0.28 in7.1 mm
08:15 AM 56.5°F13.6°C 54.8°F12.7°C 94% 0.3 mph SE0.5 kmh SE 1.0 mph1.6 kmh 29.85 in1010.8 mb 0.00 in0.0 mm 0.00 in/hr0.0 mm/hr 0.27 in6.9 mm
08:00 AM 56.7°F13.7°C 55.0°F12.8°C 94% Calm Calm 1.0 mph1.6 kmh 29.85 in1010.8 mb 0.00 in0.0 mm 0.00 in/hr0.0 mm/hr 0.27 in6.9 mm
07:45 AM 56.6°F13.7°C 55.2°F12.9°C 95% Calm Calm -- 29.85 in1010.8 mb 0.00 in0.0 mm 0.00 in/hr0.0 mm/hr 0.27 in6.9 mm
07:30 AM 56.5°F13.6°C 55.1°F12.8°C 95% 0.6 mph E1.0 kmh E 1.0 mph1.6 kmh 29.85 in1010.8 mb 0.00 in0.0 mm 0.00 in/hr0.0 mm/hr 0.27 in6.9 mm
07:15 AM 56.6°F13.7°C 55.2°F12.9°C 95% 0.3 mph SE0.5 kmh SE 1.0 mph1.6 kmh 29.85 in1010.8 mb 0.00 in0.0 mm 0.00 in/hr0.0 mm/hr 0.27 in6.9 mm
07:00 AM 56.6°F13.7°C 55.2°F12.9°C 95% 0.1 mph ESE0.2 kmh ESE 1.0 mph1.6 kmh 29.85 in1010.8 mb 0.00 in0.0 mm 0.00 in/hr0.0 mm/hr 0.27 in6.9 mm
06:45 AM 56.5°F13.6°C 55.1°F12.8°C 95% Calm Calm -- 29.85 in1010.8 mb 0.00 in0.0 mm 0.00 in/hr0.0 mm/hr 0.27 in6.9 mm
06:30 AM 56.5°F13.6°C 55.1°F12.8°C 95% 0.6 mph SE1.0 kmh SE 3.0 mph4.8 kmh 29.86 in1011.2 mb 0.00 in0.0 mm 0.00 in/hr0.0 mm/hr 0.27 in6.9 mm
06:15 AM 56.8°F13.8°C 55.4°F13.0°C 95% Calm Calm -- 29.85 in1010.8 mb 0.00 in0.0 mm 0.00 in/hr0.0 mm/hr 0.27 in6.9 mm
06:00 AM 57.0°F13.9°C 55.6°F13.1°C 95% Calm Calm -- 29.85 in1010.8 mb 0.00 in0.0 mm 0.00 in/hr0.0 mm/hr 0.27 in6.9 mm
05:45 AM 57.0°F13.9°C 55.6°F13.1°C 95% 0.2 mph ESE0.3 kmh ESE 1.0 mph1.6 kmh 29.85 in1010.8 mb 0.01 in0.3 mm 0.04 in/hr1.0 mm/hr 0.27 in6.9 mm
05:30 AM 57.1°F13.9°C 55.4°F13.0°C 94% Calm Calm -- 29.86 in1011.2 mb 0.02 in0.5 mm 0.08 in/hr2.0 mm/hr 0.26 in6.6 mm
05:15 AM 57.2°F14.0°C 55.5°F13.1°C 94% Calm Calm -- 29.86 in1011.2 mb 0.01 in0.3 mm 0.04 in/hr1.0 mm/hr 0.24 in6.1 mm
05:00 AM 57.4°F14.1°C 55.7°F13.2°C 94% 0.6 mph ESE1.0 kmh ESE 2.0 mph3.2 kmh 29.86 in1011.2 mb 0.01 in0.3 mm 0.01 in/hr0.3 mm/hr 0.23 in5.8 mm
04:45 AM 57.5°F14.2°C 55.8°F13.2°C 94% Calm Calm -- 29.86 in1011.2 mb 0.00 in0.0 mm 0.00 in/hr0.0 mm/hr 0.22 in5.6 mm
04:30 AM 57.4°F14.1°C 55.7°F13.2°C 94% Calm Calm 1.0 mph1.6 kmh 29.86 in1011.2 mb 0.00 in0.0 mm 0.00 in/hr0.0 mm/hr 0.22 in5.6 mm
04:15 AM 57.4°F14.1°C 56.0°F13.3°C 95% Calm Calm -- 29.86 in1011.2 mb 0.01 in0.3 mm 0.04 in/hr1.0 mm/hr 0.22 in5.6 mm
04:00 AM 57.5°F14.2°C 56.0°F13.3°C 95% 0.1 mph W0.2 kmh W 1.0 mph1.6 kmh 29.86 in1011.2 mb 0.00 in0.0 mm 0.00 in/hr0.0 mm/hr 0.21 in5.3 mm
03:45 AM 57.5°F14.2°C 56.1°F13.4°C 95% Calm Calm -- 29.87 in1011.5 mb 0.00 in0.0 mm 0.00 in/hr0.0 mm/hr 0.21 in5.3 mm
03:30 AM 57.7°F14.3°C 56.3°F13.5°C 95% Calm Calm -- 29.88 in1011.9 mb 0.02 in0.5 mm 0.08 in/hr2.0 mm/hr 0.21 in5.3 mm
03:15 AM 57.7°F14.3°C 56.3°F13.5°C 95% Calm Calm -- 29.89 in1012.2 mb 0.02 in0.5 mm 0.08 in/hr2.0 mm/hr 0.20 in5.1 mm
03:00 AM 57.7°F14.3°C 56.3°F13.5°C 95% Calm Calm -- 29.89 in1012.2 mb 0.01 in0.3 mm 0.01 in/hr0.3 mm/hr 0.18 in4.6 mm
02:45 AM 57.8°F14.3°C 56.4°F13.6°C 95% Calm Calm -- 29.90 in1012.5 mb 0.02 in0.5 mm 0.08 in/hr2.0 mm/hr 0.17 in4.3 mm
02:30 AM 57.8°F14.3°C 56.4°F13.6°C 95% Calm Calm -- 29.90 in1012.5 mb 0.01 in0.3 mm 0.04 in/hr1.0 mm/hr 0.15 in3.8 mm
02:15 AM 57.9°F14.4°C 56.2°F13.4°C 94% Calm Calm -- 29.90 in1012.5 mb 0.02 in0.5 mm 0.08 in/hr2.0 mm/hr 0.14 in3.6 mm
02:00 AM 58.0°F14.4°C 56.3°F13.5°C 94% Calm Calm -- 29.91 in1012.9 mb 0.02 in0.5 mm 0.03 in/hr0.8 mm/hr 0.12 in3.0 mm
01:45 AM 58.0°F14.4°C 56.3°F13.5°C 94% Calm Calm -- 29.91 in1012.9 mb 0.03 in0.8 mm 0.12 in/hr3.0 mm/hr 0.10 in2.5 mm
01:30 AM 58.0°F14.4°C 56.3°F13.5°C 94% Calm Calm -- 29.91 in1012.9 mb 0.02 in0.5 mm 0.08 in/hr2.0 mm/hr 0.07 in1.8 mm
01:15 AM 58.0°F14.4°C 56.3°F13.5°C 94% Calm Calm -- 29.93 in1013.5 mb 0.02 in0.5 mm 0.08 in/hr2.0 mm/hr 0.05 in1.3 mm
01:00 AM 58.0°F14.4°C 56.3°F13.5°C 94% Calm Calm -- 29.93 in1013.5 mb 0.01 in0.3 mm 0.01 in/hr0.3 mm/hr 0.03 in0.8 mm
12:45 AM 57.9°F14.4°C 56.2°F13.4°C 94% 0.1 mph NNW0.2 kmh NNW -- 29.93 in1013.5 mb 0.00 in0.0 mm 0.00 in/hr0.0 mm/hr 0.02 in0.5 mm
12:30 AM 57.9°F14.4°C 56.2°F13.4°C 94% Calm Calm -- 29.94 in1013.9 mb 0.01 in0.3 mm 0.04 in/hr1.0 mm/hr 0.02 in0.5 mm
12:15 AM 57.9°F14.4°C 56.2°F13.4°C 94% Calm Calm -- 29.94 in1013.9 mb 0.01 in0.3 mm 0.04 in/hr1.0 mm/hr 0.01 in0.3 mm
12:00 AM 57.9°F14.4°C 56.2°F13.4°C 94% Calm Calm -- 29.94 in1013.9 mb 0.02 in0.5 mm 0.00 in/hr0.0 mm/hr 0.02 in0.5 mm